createdAt,value
2022-10-22T00:01:03.849Z,11.10
2022-10-22T00:03:30.622Z,11.10
2022-10-22T00:05:57.297Z,11.20
2022-10-22T00:08:24.056Z,11.10
2022-10-22T00:10:50.828Z,11.10
2022-10-22T00:13:17.602Z,11.10
2022-10-22T00:15:44.313Z,11.10
2022-10-22T00:18:11.294Z,11.20
2022-10-22T00:20:37.976Z,11.20
2022-10-22T00:23:04.834Z,11.20
2022-10-22T00:25:33.837Z,11.20
2022-10-22T00:28:00.498Z,11.20
2022-10-22T00:30:28.783Z,11.20
2022-10-22T00:32:55.446Z,11.20
2022-10-22T00:35:22.111Z,11.20
2022-10-22T00:37:48.766Z,11.20
2022-10-22T00:40:15.456Z,11.20
2022-10-22T00:42:42.624Z,11.20
2022-10-22T00:45:09.638Z,11.20
2022-10-22T00:47:42.912Z,11.30
2022-10-22T00:50:15.727Z,11.30
2022-10-22T00:52:42.777Z,11.30
2022-10-22T00:55:09.933Z,11.30
2022-10-22T00:57:36.978Z,11.30
2022-10-22T01:00:05.810Z,11.30
2022-10-22T01:02:32.909Z,11.20
2022-10-22T01:04:59.841Z,11.20
2022-10-22T01:07:26.814Z,11.20
2022-10-22T01:10:05.391Z,11.20
2022-10-22T01:12:50.705Z,11.10
2022-10-22T01:15:28.899Z,11.10
2022-10-22T01:18:12.456Z,11.10
2022-10-22T01:21:10.508Z,11.10
2022-10-22T01:24:01.796Z,11.00
2022-10-22T01:26:56.208Z,11.00
2022-10-22T01:29:29.305Z,11.00
2022-10-22T01:32:04.708Z,11.00
2022-10-22T01:34:33.443Z,11.10
2022-10-22T01:37:01.749Z,11.10
2022-10-22T01:39:30.924Z,11.10
2022-10-22T01:41:59.097Z,11.10
2022-10-22T01:44:34.146Z,11.10
2022-10-22T01:47:32.424Z,11.10
2022-10-22T01:50:30.903Z,11.10
2022-10-22T01:53:24.083Z,11.10
2022-10-22T01:56:02.987Z,11.10
2022-10-22T01:58:42.320Z,11.10
2022-10-22T02:01:41.438Z,11.10
2022-10-22T02:04:18.321Z,11.10
2022-10-22T02:06:46.919Z,11.10
2022-10-22T02:09:16.146Z,11.10
2022-10-22T02:11:44.147Z,11.10
2022-10-22T02:14:11.706Z,11.10
2022-10-22T02:16:44.658Z,11.20
2022-10-22T02:19:17.975Z,11.20
2022-10-22T02:21:45.075Z,11.30
2022-10-22T02:24:12.311Z,11.40
2022-10-22T02:27:03.882Z,11.40
2022-10-22T02:29:44.607Z,11.40
2022-10-22T02:32:16.412Z,11.40
2022-10-22T02:34:43.524Z,11.50
2022-10-22T02:37:10.409Z,11.40
2022-10-22T02:39:38.525Z,11.50
2022-10-22T02:42:05.352Z,11.50
2022-10-22T02:44:32.120Z,11.50
2022-10-22T02:46:59.743Z,11.50
2022-10-22T02:49:26.745Z,11.50
2022-10-22T02:51:53.488Z,11.50
2022-10-22T02:54:20.228Z,11.50
2022-10-22T02:56:46.946Z,11.50
2022-10-22T02:59:13.652Z,11.50
2022-10-22T03:01:40.347Z,11.50
2022-10-22T03:04:07.299Z,11.60
2022-10-22T03:06:34.027Z,11.60
2022-10-22T03:09:00.832Z,11.60
2022-10-22T03:11:27.590Z,11.60
2022-10-22T03:13:54.372Z,11.60
2022-10-22T03:16:21.074Z,11.50
2022-10-22T03:18:47.774Z,11.50
2022-10-22T03:21:40.288Z,11.50
2022-10-22T03:24:13.324Z,11.50
2022-10-22T03:26:41.541Z,11.50
2022-10-22T03:29:10.387Z,11.60
2022-10-22T03:31:37.157Z,11.60
2022-10-22T03:34:03.899Z,11.60
2022-10-22T03:36:31.766Z,11.70
2022-10-22T03:39:00.122Z,11.70
2022-10-22T03:41:27.449Z,11.70
2022-10-22T03:43:54.657Z,11.70
2022-10-22T03:46:21.349Z,11.70
2022-10-22T03:48:48.040Z,11.70
2022-10-22T03:51:14.942Z,11.70
2022-10-22T03:53:41.707Z,11.70
2022-10-22T03:56:10.423Z,11.70
2022-10-22T03:58:38.505Z,11.70
2022-10-22T04:01:07.452Z,11.70
2022-10-22T04:03:34.574Z,11.70
2022-10-22T04:06:07.586Z,11.70
2022-10-22T04:08:34.801Z,11.70
2022-10-22T04:11:01.754Z,11.70
2022-10-22T04:13:28.537Z,11.70
2022-10-22T04:15:55.339Z,11.70
2022-10-22T04:18:23.319Z,11.70
2022-10-22T04:20:52.145Z,11.70
2022-10-22T04:23:18.880Z,11.60
2022-10-22T04:25:45.603Z,11.70
2022-10-22T04:28:12.353Z,11.60
2022-10-22T04:30:39.090Z,11.60
2022-10-22T04:33:05.804Z,11.60
2022-10-22T04:35:32.496Z,11.60
2022-10-22T04:37:59.219Z,11.60
2022-10-22T04:40:25.937Z,11.60
2022-10-22T04:42:52.627Z,11.50
2022-10-22T04:45:19.307Z,11.50
2022-10-22T04:47:46.031Z,11.50
2022-10-22T04:50:12.754Z,11.50
2022-10-22T04:52:39.467Z,11.50
2022-10-22T04:55:06.585Z,11.50
2022-10-22T04:57:33.445Z,11.40
2022-10-22T05:00:00.144Z,11.40
2022-10-22T05:02:26.831Z,11.40
2022-10-22T05:04:53.549Z,11.30
2022-10-22T05:07:20.297Z,11.30
2022-10-22T05:09:46.980Z,11.20
2022-10-22T05:12:13.652Z,11.20
2022-10-22T05:14:43.993Z,11.20
2022-10-22T05:17:11.783Z,11.20
2022-10-22T05:19:38.522Z,11.30
2022-10-22T05:22:05.589Z,11.20
2022-10-22T05:24:34.342Z,11.30
2022-10-22T05:27:01.042Z,11.30
2022-10-22T05:29:28.009Z,11.30
2022-10-22T05:31:54.983Z,11.30
2022-10-22T05:34:21.890Z,11.30
2022-10-22T05:36:48.577Z,11.30
2022-10-22T05:39:15.473Z,11.40
2022-10-22T05:41:42.272Z,11.40
2022-10-22T05:44:11.999Z,11.40
2022-10-22T05:46:38.742Z,11.40
2022-10-22T05:49:06.901Z,11.30
2022-10-22T05:51:37.243Z,11.30
2022-10-22T05:54:07.458Z,11.30
2022-10-22T05:56:34.699Z,11.30
2022-10-22T06:01:37.506Z,11.30
2022-10-22T06:04:07.454Z,11.40
2022-10-22T06:06:48.834Z,11.40
2022-10-22T06:09:29.384Z,11.50
2022-10-22T06:11:57.299Z,11.50
2022-10-22T06:14:25.076Z,11.50
2022-10-22T06:16:52.279Z,11.60
2022-10-22T06:19:21.707Z,11.60
2022-10-22T06:21:48.888Z,11.70
2022-10-22T06:24:16.034Z,11.70
2022-10-22T06:26:42.845Z,11.70
2022-10-22T06:29:09.839Z,11.70
2022-10-22T06:31:37.072Z,11.70
2022-10-22T06:34:10.036Z,11.80
2022-10-22T06:36:37.265Z,11.80
2022-10-22T06:39:04.492Z,11.80
2022-10-22T06:41:31.394Z,11.80
2022-10-22T06:43:58.342Z,11.90
2022-10-22T06:46:26.170Z,11.90
2022-10-22T06:49:00.936Z,11.90
2022-10-22T06:51:28.493Z,11.90
2022-10-22T06:53:56.952Z,12.00
2022-10-22T06:56:26.479Z,12.00
2022-10-22T06:58:55.448Z,12.00
2022-10-22T07:01:31.309Z,12.00
2022-10-22T07:03:58.170Z,12.00
2022-10-22T07:06:26.047Z,12.10
2022-10-22T07:08:54.622Z,12.10
2022-10-22T07:11:30.792Z,12.40
2022-10-22T07:13:59.473Z,12.70
2022-10-22T07:16:29.668Z,13.00
2022-10-22T07:18:59.698Z,13.20
2022-10-22T07:21:26.394Z,13.30
2022-10-22T07:23:53.109Z,13.40
2022-10-22T07:26:20.445Z,13.40
2022-10-22T07:28:47.767Z,13.50
2022-10-22T07:31:17.934Z,13.60
2022-10-22T07:33:48.185Z,13.80
2022-10-22T07:36:20.173Z,14.00
2022-10-22T07:38:49.412Z,14.10
2022-10-22T07:41:17.589Z,14.30
2022-10-22T07:43:46.108Z,14.50
2022-10-22T07:46:13.311Z,14.70
2022-10-22T07:48:40.106Z,14.80
2022-10-22T07:51:07.338Z,14.80
2022-10-22T07:53:34.262Z,14.70
2022-10-22T07:56:01.056Z,14.70
2022-10-22T07:58:27.749Z,14.50
2022-10-22T08:01:01.011Z,14.50
2022-10-22T08:03:29.158Z,14.40
2022-10-22T08:05:55.910Z,14.40
2022-10-22T08:08:25.865Z,14.50
2022-10-22T08:10:56.835Z,14.50
2022-10-22T08:13:23.967Z,14.60
2022-10-22T08:15:52.461Z,14.60
2022-10-22T08:18:23.027Z,14.70
2022-10-22T08:20:49.680Z,14.70
2022-10-22T08:23:16.620Z,14.70
2022-10-22T08:25:43.323Z,14.70
2022-10-22T08:28:09.991Z,14.70
2022-10-22T08:30:38.643Z,14.60
2022-10-22T08:33:06.194Z,14.60
2022-10-22T08:35:32.889Z,14.60
2022-10-22T08:37:59.598Z,14.70
2022-10-22T08:40:32.786Z,14.80
2022-10-22T08:43:08.366Z,14.70
2022-10-22T08:46:03.376Z,14.70
2022-10-22T08:48:48.295Z,14.70
2022-10-22T08:51:26.473Z,15.20
2022-10-22T08:54:12.015Z,17.40
2022-10-22T08:56:41.887Z,20.40
2022-10-22T08:59:23.321Z,21.50
2022-10-22T09:01:53.752Z,21.80
2022-10-22T09:04:29.324Z,23.50
2022-10-22T09:06:58.383Z,25.60
2022-10-22T09:09:30.158Z,26.50
2022-10-22T09:11:59.752Z,26.30
2022-10-22T09:14:27.332Z,27.30
2022-10-22T09:17:15.131Z,27.30
2022-10-22T09:20:26.238Z,28.50
2022-10-22T09:23:04.660Z,28.30
2022-10-22T09:25:33.667Z,28.50
2022-10-22T09:28:00.374Z,28.00
2022-10-22T09:30:35.172Z,28.10
2022-10-22T09:33:05.883Z,28.20
2022-10-22T09:35:56.215Z,29.70
2022-10-22T09:38:29.541Z,31.00
2022-10-22T09:40:59.311Z,29.50
2022-10-22T09:43:26.254Z,29.90
2022-10-22T09:45:58.695Z,29.90
2022-10-22T09:48:39.118Z,31.40
2022-10-22T09:51:41.690Z,32.70
2022-10-22T09:54:34.263Z,33.20
2022-10-22T09:59:47.999Z,35.10
2022-10-22T10:02:20.024Z,33.30
2022-10-22T10:04:56.323Z,31.50
2022-10-22T10:07:30.358Z,30.60
2022-10-22T10:09:57.306Z,30.50
2022-10-22T10:15:22.501Z,31.60
2022-10-22T10:18:14.828Z,32.60
2022-10-22T10:20:57.304Z,32.60
2022-10-22T10:24:07.908Z,32.40
2022-10-22T10:26:41.022Z,32.20
2022-10-22T10:29:30.713Z,31.90
2022-10-22T10:32:23.740Z,31.90
2022-10-22T10:35:03.592Z,28.90
2022-10-22T10:37:38.395Z,27.90
2022-10-22T10:40:30.866Z,28.50
2022-10-22T10:43:24.034Z,28.30
2022-10-22T10:46:07.825Z,28.60
2022-10-22T10:48:54.073Z,28.00
2022-10-22T10:51:45.679Z,27.30
2022-10-22T10:54:25.132Z,26.20
2022-10-22T10:56:54.915Z,25.40
2022-10-22T10:59:34.192Z,24.90
2022-10-22T11:02:33.703Z,24.30
2022-10-22T11:05:20.860Z,23.60
2022-10-22T11:08:01.747Z,23.40
2022-10-22T11:10:37.750Z,23.80
2022-10-22T11:13:31.924Z,24.50
2022-10-22T11:16:07.901Z,25.10
2022-10-22T11:18:44.041Z,25.40
2022-10-22T11:21:27.090Z,25.90
2022-10-22T11:24:02.184Z,25.90
2022-10-22T11:26:45.110Z,26.00
2022-10-22T11:29:16.285Z,26.30
2022-10-22T11:31:44.497Z,26.80
2022-10-22T11:34:35.309Z,27.00
2022-10-22T11:37:04.132Z,27.20
2022-10-22T11:39:40.364Z,27.40
2022-10-22T11:42:12.022Z,27.00
2022-10-22T11:45:13.600Z,26.80
2022-10-22T11:48:10.763Z,26.30
2022-10-22T11:50:47.250Z,26.20
2022-10-22T11:53:13.952Z,25.90
2022-10-22T11:55:47.964Z,25.40
2022-10-22T11:58:35.917Z,25.00
2022-10-22T12:01:02.558Z,24.80
2022-10-22T12:03:32.044Z,24.70
2022-10-22T12:06:15.383Z,24.60
2022-10-22T12:08:54.430Z,24.60
2022-10-22T12:11:49.511Z,24.70
2022-10-22T12:14:26.694Z,24.60
2022-10-22T12:17:08.680Z,24.30
2022-10-22T12:19:40.445Z,24.10
2022-10-22T12:22:09.843Z,24.10
2022-10-22T12:24:46.816Z,23.80
2022-10-22T12:27:30.032Z,23.90
2022-10-22T12:29:58.746Z,24.10
2022-10-22T12:32:37.332Z,23.70
2022-10-22T12:35:07.900Z,23.90
2022-10-22T12:37:38.217Z,23.90
2022-10-22T12:40:35.126Z,23.70
2022-10-22T12:43:13.636Z,23.50
2022-10-22T12:45:42.797Z,23.40
2022-10-22T12:48:23.837Z,23.40
2022-10-22T12:50:58.526Z,23.30
2022-10-22T12:53:32.884Z,23.20
2022-10-22T12:56:10.832Z,23.10
2022-10-22T12:58:44.468Z,23.10
2022-10-22T13:01:14.072Z,22.70
2022-10-22T13:03:44.715Z,22.80
2022-10-22T13:06:20.345Z,22.50
2022-10-22T13:09:16.438Z,22.50
2022-10-22T13:11:51.484Z,22.40
2022-10-22T13:14:37.429Z,22.10
2022-10-22T13:17:17.042Z,22.00
2022-10-22T13:19:49.466Z,21.80
2022-10-22T13:22:53.089Z,21.70
2022-10-22T13:25:24.539Z,21.50
2022-10-22T13:28:13.034Z,21.20
2022-10-22T13:30:53.041Z,21.00
2022-10-22T13:33:43.114Z,20.90
2022-10-22T13:36:14.475Z,20.70
2022-10-22T13:38:42.008Z,20.50
2022-10-22T13:41:26.922Z,20.40
2022-10-22T13:43:54.719Z,20.20
2022-10-22T13:46:23.081Z,20.00
2022-10-22T13:48:52.754Z,19.90
2022-10-22T13:51:37.400Z,19.80
2022-10-22T13:54:10.203Z,19.70
2022-10-22T13:56:36.950Z,19.70
2022-10-22T13:59:03.694Z,19.70
2022-10-22T14:01:30.652Z,19.60
2022-10-22T14:03:59.547Z,19.60
2022-10-22T14:06:29.838Z,19.50
2022-10-22T14:09:02.410Z,19.50
2022-10-22T14:11:31.344Z,19.50
2022-10-22T14:13:58.679Z,19.50
2022-10-22T14:16:28.065Z,19.60
2022-10-22T14:18:56.213Z,19.60
2022-10-22T14:21:23.433Z,19.70
2022-10-22T14:23:51.636Z,19.60
2022-10-22T14:26:32.801Z,19.70
2022-10-22T14:29:15.691Z,19.70
2022-10-22T14:31:44.508Z,19.70
2022-10-22T14:34:13.615Z,19.70
2022-10-22T14:36:40.410Z,19.60
2022-10-22T14:39:07.157Z,19.60
2022-10-22T14:41:34.132Z,19.60
2022-10-22T14:44:01.728Z,19.60
2022-10-22T14:46:28.434Z,19.50
2022-10-22T14:48:55.117Z,19.50
2022-10-22T14:51:22.049Z,19.60
2022-10-22T14:53:49.224Z,19.60
2022-10-22T14:56:21.277Z,19.50
2022-10-22T14:58:48.982Z,19.30
2022-10-22T15:01:15.808Z,19.00
2022-10-22T15:03:42.607Z,18.80
2022-10-22T15:06:09.317Z,18.70
2022-10-22T15:08:36.239Z,18.60
2022-10-22T15:11:02.934Z,18.60
2022-10-22T15:13:30.546Z,18.40
2022-10-22T15:15:58.249Z,18.40
2022-10-22T15:18:25.887Z,18.30
2022-10-22T15:21:00.191Z,18.30
2022-10-22T15:23:27.437Z,18.20
2022-10-22T15:25:54.364Z,18.10
2022-10-22T15:28:21.559Z,18.10
2022-10-22T15:30:59.672Z,18.00
2022-10-22T15:33:28.484Z,17.90
2022-10-22T15:35:56.138Z,17.80
2022-10-22T15:41:08.624Z,17.60
2022-10-22T15:43:35.841Z,17.40
2022-10-22T15:46:13.833Z,17.30
2022-10-22T15:48:40.595Z,17.20
2022-10-22T15:51:18.291Z,17.10
2022-10-22T15:56:12.864Z,16.90
2022-10-22T15:58:39.509Z,16.80
2022-10-22T16:01:08.458Z,16.80
2022-10-22T16:03:35.617Z,16.80
2022-10-22T16:06:02.988Z,16.70
2022-10-22T16:08:29.999Z,16.60
2022-10-22T16:10:56.843Z,16.60
2022-10-22T16:13:24.773Z,16.50
2022-10-22T16:15:52.056Z,16.50
2022-10-22T16:18:20.176Z,16.50
2022-10-22T16:20:46.947Z,16.40
2022-10-22T16:23:15.531Z,16.30
2022-10-22T16:25:42.807Z,16.20
2022-10-22T16:28:10.974Z,16.20
2022-10-22T16:30:38.391Z,16.10
2022-10-22T16:33:06.734Z,16.10
2022-10-22T16:35:33.446Z,16.10
2022-10-22T16:38:00.250Z,16.10
2022-10-22T16:40:27.091Z,16.00
2022-10-22T16:42:53.733Z,15.90
2022-10-22T16:45:20.388Z,16.00
2022-10-22T16:47:48.427Z,15.80
2022-10-22T16:50:16.252Z,15.70
2022-10-22T16:52:42.976Z,15.70
2022-10-22T16:55:09.774Z,15.60
2022-10-22T16:57:36.469Z,15.50
2022-10-22T17:00:05.209Z,15.30
2022-10-22T17:02:32.191Z,15.10
2022-10-22T17:04:58.890Z,14.90
2022-10-22T17:07:25.637Z,14.70
2022-10-22T17:09:52.366Z,14.50
2022-10-22T17:12:19.043Z,14.40
2022-10-22T17:14:45.776Z,14.30
2022-10-22T17:17:12.530Z,14.10
2022-10-22T17:19:39.362Z,14.10
2022-10-22T17:22:06.100Z,13.90
2022-10-22T17:24:32.832Z,13.80
2022-10-22T17:26:59.597Z,13.70
2022-10-22T17:29:26.307Z,13.60
2022-10-22T17:31:53.110Z,13.50
2022-10-22T17:34:19.869Z,13.40
2022-10-22T17:36:46.571Z,13.30
2022-10-22T17:39:17.760Z,13.20
2022-10-22T17:41:45.888Z,13.10
2022-10-22T17:44:13.533Z,13.00
2022-10-22T17:46:40.579Z,12.90
2022-10-22T17:49:18.311Z,12.80
2022-10-22T17:51:45.794Z,12.70
2022-10-22T17:54:13.838Z,12.70
2022-10-22T17:56:41.166Z,12.60
2022-10-22T17:59:10.499Z,12.50
2022-10-22T18:01:43.270Z,12.40
2022-10-22T18:04:13.185Z,12.40
2022-10-22T18:06:40.169Z,12.30
2022-10-22T18:09:08.598Z,12.30
2022-10-22T18:11:39.122Z,12.20
2022-10-22T18:14:06.159Z,12.10
2022-10-22T18:16:32.848Z,12.10
2022-10-22T18:19:00.310Z,12.00
2022-10-22T18:21:28.995Z,12.00
2022-10-22T18:23:57.260Z,12.00
2022-10-22T18:26:26.679Z,11.90
2022-10-22T18:28:54.490Z,11.80
2022-10-22T18:31:23.301Z,11.70
2022-10-22T18:33:50.156Z,11.70
2022-10-22T18:36:20.354Z,11.60
2022-10-22T18:38:51.720Z,11.70
2022-10-22T18:41:19.529Z,11.70
2022-10-22T18:43:53.005Z,11.70
2022-10-22T18:46:20.086Z,11.60
2022-10-22T18:48:47.139Z,11.60
2022-10-22T18:51:15.215Z,11.60
2022-10-22T18:53:44.170Z,11.50
2022-10-22T18:56:13.372Z,11.40
2022-10-22T18:58:41.520Z,11.30
2022-10-22T19:01:13.800Z,11.30
2022-10-22T19:03:41.119Z,11.20
2022-10-22T19:06:08.087Z,11.20
2022-10-22T19:08:36.299Z,11.10
2022-10-22T19:11:09.901Z,11.10
2022-10-22T19:13:37.049Z,11.10
2022-10-22T19:16:06.349Z,11.00
2022-10-22T19:18:33.533Z,10.90
2022-10-22T19:21:01.878Z,10.90
2022-10-22T19:23:32.458Z,10.90
2022-10-22T19:26:14.747Z,10.80
2022-10-22T19:28:41.769Z,10.80
2022-10-22T19:31:11.427Z,10.80
2022-10-22T19:33:38.935Z,10.80
2022-10-22T19:36:12.709Z,10.70
2022-10-22T19:38:41.126Z,10.80
2022-10-22T19:41:12.508Z,10.80
2022-10-22T19:43:40.449Z,10.70
2022-10-22T19:46:10.042Z,10.70
2022-10-22T19:48:37.591Z,10.60
2022-10-22T19:51:09.331Z,10.50
2022-10-22T19:53:37.998Z,10.50
2022-10-22T19:56:07.313Z,10.40
2022-10-22T19:58:34.984Z,10.30
2022-10-22T20:01:11.006Z,10.30
2022-10-22T20:03:38.524Z,10.30
2022-10-22T20:06:07.490Z,10.20
2022-10-22T20:08:37.827Z,10.20
2022-10-22T20:11:07.070Z,10.10
2022-10-22T20:13:35.174Z,10.10
2022-10-22T20:16:02.109Z,10.10
2022-10-22T20:18:28.963Z,10.10
2022-10-22T20:20:57.523Z,10.10
2022-10-22T20:23:24.184Z,10.00
2022-10-22T20:25:50.865Z,10.00
2022-10-22T20:28:17.536Z,10.00
2022-10-22T20:30:45.499Z,9.90
2022-10-22T20:33:13.003Z,9.90
2022-10-22T20:35:39.805Z,9.90
2022-10-22T20:38:08.083Z,9.90
2022-10-22T20:40:36.308Z,9.80
2022-10-22T20:43:03.204Z,9.80
2022-10-22T20:45:29.974Z,9.80
2022-10-22T20:48:02.618Z,9.70
2022-10-22T20:50:32.028Z,9.70
2022-10-22T20:52:59.462Z,9.70
2022-10-22T20:55:27.247Z,9.80
2022-10-22T20:57:54.081Z,9.90
2022-10-22T21:00:20.976Z,9.90
2022-10-22T21:02:47.692Z,10.00
2022-10-22T21:05:14.373Z,10.00
2022-10-22T21:07:41.517Z,10.00
2022-10-22T21:10:08.547Z,9.90
2022-10-22T21:12:35.424Z,9.90
2022-10-22T21:15:02.251Z,9.80
2022-10-22T21:17:29.087Z,9.80
2022-10-22T21:19:55.776Z,9.80
2022-10-22T21:22:22.451Z,9.80
2022-10-22T21:24:49.119Z,9.80
2022-10-22T21:27:15.801Z,9.70
2022-10-22T21:29:42.557Z,9.70
2022-10-22T21:32:09.378Z,9.70
2022-10-22T21:34:38.840Z,9.70
2022-10-22T21:37:05.989Z,9.70
2022-10-22T21:39:32.708Z,9.60
2022-10-22T21:41:59.418Z,9.60
2022-10-22T21:44:26.088Z,9.50
2022-10-22T21:46:53.136Z,9.50
2022-10-22T21:49:19.802Z,9.50
2022-10-22T21:51:46.632Z,9.40
2022-10-22T21:54:13.425Z,9.40
2022-10-22T21:56:40.468Z,9.30
2022-10-22T21:59:07.904Z,9.30
2022-10-22T22:01:35.614Z,9.30
2022-10-22T22:04:03.124Z,9.20
2022-10-22T22:06:33.357Z,9.20
2022-10-22T22:09:01.802Z,9.10
2022-10-22T22:11:29.557Z,9.10
2022-10-22T22:13:57.800Z,9.20
2022-10-22T22:16:30.546Z,9.10
2022-10-22T22:18:59.478Z,9.20
2022-10-22T22:21:26.494Z,9.20
2022-10-22T22:23:53.303Z,9.20
2022-10-22T22:26:25.472Z,9.20
2022-10-22T22:28:55.673Z,9.20
2022-10-22T22:31:25.095Z,9.20
2022-10-22T22:33:58.222Z,9.10
2022-10-22T22:36:25.021Z,9.20
2022-10-22T22:38:56.028Z,9.20
2022-10-22T22:41:23.192Z,9.10
2022-10-22T22:43:50.179Z,9.10
2022-10-22T22:46:17.325Z,9.10
2022-10-22T22:48:44.498Z,9.00
2022-10-22T22:51:11.543Z,9.10
2022-10-22T22:53:38.320Z,9.10
2022-10-22T22:56:09.663Z,9.10
2022-10-22T22:58:38.309Z,9.10
2022-10-22T23:01:20.732Z,9.10
2022-10-22T23:03:55.402Z,9.20
2022-10-22T23:06:22.650Z,9.20
2022-10-22T23:08:52.067Z,9.10
2022-10-22T23:11:20.591Z,9.20
2022-10-22T23:13:47.839Z,9.10
2022-10-22T23:16:19.937Z,9.00
2022-10-22T23:18:47.932Z,8.90
2022-10-22T23:21:20.872Z,8.80
2022-10-22T23:23:53.512Z,8.70
2022-10-22T23:26:23.598Z,8.70
2022-10-22T23:28:50.755Z,8.60
2022-10-22T23:31:19.423Z,8.40
2022-10-22T23:33:46.614Z,8.60
2022-10-22T23:36:13.743Z,8.50
2022-10-22T23:38:41.322Z,8.50
2022-10-22T23:41:08.500Z,8.50
2022-10-22T23:43:38.017Z,8.60
2022-10-22T23:46:09.585Z,8.60
2022-10-22T23:48:36.837Z,8.60
2022-10-22T23:51:05.802Z,8.60
2022-10-22T23:56:17.695Z,8.50
2022-10-22T23:58:44.814Z,8.50
